Wtr Mill, New York
Current Conditions -  °F | °C
As of 3:53 PM on Friday 31 Oct 2014 (Local Time) from KFOK Reporting Station
Overcast Overcast  
Wind Chill: 55°   Ceiling: 6000
Heat Index: 55°   Visibility: 10mi
Dew Point: 45°   Wind: 9mph
Humidity: 69%   Direction: 40°NE
Pressure: 29.9"   Gusts: NA
Location:  40.9217°N, 72.3434°W
Report Text: KFOK 311953Z 04008KT 10SM FEW025 OVC060 13/07 A2990 RMK AO2 SLP126 T01280072
Loading
Personal Weather Stations






























Interactive Weather Map New forecast layout! Learn more

10-Day Weather Forecast

Advertisements
Track Severe Weather on mobile